Time;durP1;ratioP1;P1;durP2;ratioP2;P2;SDS_P1;SDS_P2;PMS_P1;PMS_P2;Temp;Humidity;BMP_temperature;BMP_pressure;BME280_temperature;BME280_humidity;BME280_pressure;Samples;Min_cycle;Max_cycle;Signal;HPM_P1;HPM_P2
2022/12/30 00:01:43;;;;;;;69.03;47.97;;;;;;;;;;6307102;22;20137;-76
2022/12/30 00:04:09;;;;;;;74.40;46.95;;;;;;;;;;6306961;22;20022;-75
2022/12/30 00:06:35;;;;;;;75.50;50.15;;;;;;;;;;6307093;22;20326;-76
2022/12/30 00:09:01;;;;;;;74.25;49.58;;;;;;;;;;6304073;22;20007;-76
2022/12/30 00:11:29;;;;;;;71.30;49.42;;;;;;;;;;6303450;22;20434;-75
2022/12/30 00:33:27;;;;;;;69.13;46.13;;;;;;;;;;6306874;22;20019;-76
2022/12/30 00:35:53;;;;;;;76.53;49.65;;;;;;;;;;6306890;22;20074;-75
2022/12/30 00:38:19;;;;;;;72.88;49.28;;;;;;;;;;6306458;22;20418;-76
2022/12/30 00:43:30;;;;;;;77.63;49.47;;;;;;;;;;6306821;22;20096;-76
2022/12/30 00:45:57;;;;;;;73.53;48.90;;;;;;;;;;6306597;22;20004;-76
2022/12/30 00:56:37;;;;;;;64.47;43.05;;;;;;;;;;6307436;22;20053;-75
2022/12/30 00:59:04;;;;;;;64.30;41.83;;;;;;;;;;6307173;22;20007;-75
2022/12/30 01:01:30;;;;;;;64.38;43.92;;;;;;;;;;6306811;22;20007;-75
2022/12/30 01:04:09;;;;;;;;;;;;;;;;;;;;;
2022/12/30 01:30:48;;;;;;;63.10;41.08;;;;;;;;;;6308260;22;20061;-76
2022/12/30 01:33:15;;;;;;;61.53;42.30;;;;;;;;;;6308630;22;20000;-76
2022/12/30 01:35:41;;;;;;;74.03;45.60;;;;;;;;;;6307990;22;20341;-76
2022/12/30 01:38:07;;;;;;;64.25;42.92;;;;;;;;;;6307931;22;20409;-76
2022/12/30 01:40:38;;;;;;;70.22;43.45;;;;;;;;;;6308205;22;20364;-76
2022/12/30 01:43:04;;;;;;;64.80;42.13;;;;;;;;;;6308116;22;20380;-75
2022/12/30 01:45:31;;;;;;;66.07;43.17;;;;;;;;;;6308357;22;20066;-76
2022/12/30 01:48:03;;;;;;;57.15;39.28;;;;;;;;;;6308232;22;19999;-75
2022/12/30 01:50:33;;;;;;;63.72;41.05;;;;;;;;;;6308324;22;20027;-75
2022/12/30 01:53:04;;;;;;;65.25;42.13;;;;;;;;;;6308203;22;20033;-76
2022/12/30 01:55:57;;;;;;;65.93;41.33;;;;;;;;;;6308029;22;20437;-76
2022/12/30 01:58:32;;;;;;;72.20;43.30;;;;;;;;;;6273764;22;20511;-76
2022/12/30 02:00:58;;;;;;;67.73;42.07;;;;;;;;;;6304621;22;20225;-76
2022/12/30 02:03:26;;;;;;;67.55;41.45;;;;;;;;;;6304612;22;20433;-76
2022/12/30 02:05:52;;;;;;;63.42;40.72;;;;;;;;;;6307303;22;20425;-75
2022/12/30 02:08:19;;;;;;;64.68;42.13;;;;;;;;;;6308020;22;19995;-75
2022/12/30 02:10:47;;;;;;;64.93;41.53;;;;;;;;;;6307767;22;20005;-75
2022/12/30 02:13:14;;;;;;;68.03;41.83;;;;;;;;;;6307095;22;20417;-75
2022/12/30 02:16:01;;;;;;;68.93;44.17;;;;;;;;;;6308127;22;20125;-76
2022/12/30 02:18:45;;;;;;;69.90;43.85;;;;;;;;;;6260470;22;20014;-76
2022/12/30 02:21:33;;;;;;;67.38;42.25;;;;;;;;;;6307602;22;20096;-75
2022/12/30 02:23:59;;;;;;;70.00;43.65;;;;;;;;;;6307976;22;20074;-75
2022/12/30 02:26:28;;;;;;;69.47;43.67;;;;;;;;;;6307798;22;20441;-76
2022/12/30 02:29:21;;;;;;;64.10;42.90;;;;;;;;;;6279827;22;20030;-75
2022/12/30 02:32:06;;;;;;;68.43;42.80;;;;;;;;;;6245492;22;20481;-76
2022/12/30 02:34:38;;;;;;;66.37;42.27;;;;;;;;;;6307654;22;20084;-74
2022/12/30 02:37:04;;;;;;;70.40;44.42;;;;;;;;;;6307794;22;20015;-75
2022/12/30 02:39:38;;;;;;;67.03;42.28;;;;;;;;;;6307694;22;20077;-76
2022/12/30 02:44:54;;;;;;;73.75;43.13;;;;;;;;;;6308006;22;20011;-75
2022/12/30 02:47:31;;;;;;;68.93;42.13;;;;;;;;;;6308318;22;19999;-75
2022/12/30 03:16:14;;;;;;;62.47;41.20;;;;;;;;;;6094984;23;20057;-76
2022/12/30 03:18:12;;;;;;;63.83;39.72;;;;;;;;;;6081530;23;20583;-75
2022/12/30 03:20:40;;;;;;;64.23;39.97;;;;;;;;;;6094134;23;20376;-76
2022/12/30 03:28:38;;;;;;;64.93;39.40;;;;;;;;;;6276446;22;20058;-75
2022/12/30 03:31:06;;;;;;;63.88;39.80;;;;;;;;;;6276184;22;20004;-75
2022/12/30 03:33:35;;;;;;;70.82;42.65;;;;;;;;;;6274638;22;20383;-76
2022/12/30 03:36:16;;;;;;;64.38;40.50;;;;;;;;;;6276277;22;20365;-76
2022/12/30 03:38:46;;;;;;;69.68;40.67;;;;;;;;;;6276194;22;20008;-76
2022/12/30 03:41:13;;;;;;;62.65;41.53;;;;;;;;;;6276355;22;20055;-74
2022/12/30 03:43:39;;;;;;;72.22;42.72;;;;;;;;;;6276149;22;20081;-75
2022/12/30 03:46:06;;;;;;;64.93;40.22;;;;;;;;;;6275911;22;20456;-76
2022/12/30 03:48:32;;;;;;;62.75;39.03;;;;;;;;;;6276107;22;20007;-76
2022/12/30 03:50:58;;;;;;;63.20;39.53;;;;;;;;;;6276129;22;20000;-76
2022/12/30 03:53:24;;;;;;;59.45;38.88;;;;;;;;;;6276039;22;20419;-75
2022/12/30 03:55:51;;;;;;;66.00;41.35;;;;;;;;;;6275847;22;20003;-76
2022/12/30 03:58:17;;;;;;;67.30;42.80;;;;;;;;;;6275132;22;20011;-76
2022/12/30 04:00:43;;;;;;;67.60;41.88;;;;;;;;;;6275781;22;20457;-75
2022/12/30 04:03:09;;;;;;;67.88;41.35;;;;;;;;;;6298760;22;20011;-75
2022/12/30 04:05:35;;;;;;;62.22;40.53;;;;;;;;;;6307076;22;19999;-75
2022/12/30 04:08:02;;;;;;;72.07;42.42;;;;;;;;;;6306691;22;20000;-75
2022/12/30 04:10:28;;;;;;;66.18;41.15;;;;;;;;;;6306805;22;20448;-75
2022/12/30 04:12:54;;;;;;;68.68;41.40;;;;;;;;;;6306669;22;19996;-75
2022/12/30 04:15:20;;;;;;;62.05;39.60;;;;;;;;;;6306534;22;20003;-76
2022/12/30 04:17:46;;;;;;;64.55;41.75;;;;;;;;;;6306839;22;20330;-76
2022/12/30 04:20:12;;;;;;;65.07;40.10;;;;;;;;;;6306688;22;20074;-75
2022/12/30 04:22:38;;;;;;;71.07;41.90;;;;;;;;;;6306405;22;20410;-76
2022/12/30 04:25:04;;;;;;;74.95;44.15;;;;;;;;;;6306476;22;19999;-75
2022/12/30 04:27:31;;;;;;;69.63;43.15;;;;;;;;;;6307489;22;20111;-75
2022/12/30 04:29:57;;;;;;;64.45;40.17;;;;;;;;;;6307147;22;20000;-75
2022/12/30 04:32:23;;;;;;;63.00;40.65;;;;;;;;;;6307041;22;20051;-77
2022/12/30 04:34:54;;;;;;;67.05;41.60;;;;;;;;;;6307165;22;20000;-76
2022/12/30 04:38:03;;;;;;;64.65;41.03;;;;;;;;;;6308567;22;20379;-75
2022/12/30 04:55:59;;;;;;;58.13;37.70;;;;;;;;;;6184254;23;20410;-75
2022/12/30 04:58:25;;;;;;;;;;;;;;;;;;6184501;23;20206;-75
2022/12/30 05:03:55;;;;;;;61.15;40.45;;;;;;;;;;6154101;23;20167;-76
2022/12/30 05:06:21;;;;;;;59.72;39.92;;;;;;;;;;6129598;23;20456;-75
2022/12/30 05:08:48;;;;;;;56.87;38.07;;;;;;;;;;6160787;22;20347;-75
2022/12/30 05:11:14;;;;;;;66.63;40.27;;;;;;;;;;6275766;22;20428;-76
2022/12/30 05:13:40;;;;;;;61.87;39.83;;;;;;;;;;6277255;22;20521;-76
2022/12/30 05:16:06;;;;;;;63.43;41.33;;;;;;;;;;6275404;22;20078;-76
2022/12/30 05:18:32;;;;;;;62.80;41.30;;;;;;;;;;6277119;22;20015;-75
2022/12/30 05:20:58;;;;;;;62.58;41.72;;;;;;;;;;6276884;22;20299;-75
2022/12/30 05:26:14;;;;;;;59.40;39.90;;;;;;;;;;6277396;22;20011;-75
2022/12/30 05:28:44;;;;;;;59.63;38.83;;;;;;;;;;6277599;22;20000;-76
2022/12/30 05:31:10;;;;;;;66.22;41.72;;;;;;;;;;6277672;22;20090;-75
2022/12/30 05:33:36;;;;;;;59.28;38.97;;;;;;;;;;6277661;22;20415;-75
2022/12/30 05:36:03;;;;;;;61.92;40.33;;;;;;;;;;6277341;22;20414;-75
2022/12/30 05:38:29;;;;;;;60.15;39.30;;;;;;;;;;6277607;22;20012;-76
2022/12/30 05:40:55;;;;;;;57.72;37.33;;;;;;;;;;6276976;22;19996;-75
2022/12/30 05:43:21;;;;;;;62.65;38.15;;;;;;;;;;6277305;22;20027;-75
2022/12/30 05:45:47;;;;;;;58.42;39.10;;;;;;;;;;6277390;22;20002;-76
2022/12/30 05:48:14;;;;;;;59.00;38.42;;;;;;;;;;6276922;22;20053;-75
2022/12/30 05:50:40;;;;;;;57.20;36.70;;;;;;;;;;6276896;22;19996;-76
2022/12/30 05:53:07;;;;;;;63.60;39.40;;;;;;;;;;6276723;22;20011;-76
2022/12/30 05:55:33;;;;;;;59.90;38.17;;;;;;;;;;6277173;22;20469;-75
2022/12/30 05:57:59;;;;;;;58.45;37.72;;;;;;;;;;6277008;22;20018;-76
2022/12/30 06:00:25;;;;;;;59.47;39.55;;;;;;;;;;6275228;22;20053;-76
2022/12/30 06:02:51;;;;;;;60.85;38.88;;;;;;;;;;6293723;22;20015;-75
2022/12/30 06:05:17;;;;;;;61.72;37.53;;;;;;;;;;6307963;22;20006;-76
2022/12/30 06:07:43;;;;;;;61.65;37.45;;;;;;;;;;6307975;22;20011;-76
2022/12/30 06:10:09;;;;;;;58.88;36.47;;;;;;;;;;6308079;22;20383;-76
2022/12/30 06:12:35;;;;;;;58.38;37.08;;;;;;;;;;6308716;22;20070;-75
2022/12/30 06:15:02;;;;;;;66.28;38.30;;;;;;;;;;6308977;22;20367;-75
2022/12/30 06:17:28;;;;;;;56.65;36.00;;;;;;;;;;6307604;22;20018;-75
2022/12/30 06:19:54;;;;;;;58.60;36.15;;;;;;;;;;6308384;22;20006;-76
2022/12/30 06:22:20;;;;;;;57.10;35.55;;;;;;;;;;6308220;22;20003;-76
2022/12/30 06:43:34;;;;;;;46.03;29.90;;;;;;;;;;6154054;23;20417;-75
2022/12/30 06:46:00;;;;;;;46.67;30.93;;;;;;;;;;6094271;23;20006;-75
2022/12/30 06:48:56;;;;;;;47.45;30.95;;;;;;;;;;6094267;23;20370;-76
2022/12/30 06:51:25;;;;;;;57.00;35.97;;;;;;;;;;6094260;23;20006;-76
2022/12/30 06:53:52;;;;;;;53.63;34.72;;;;;;;;;;6094099;23;20038;-76
2022/12/30 06:56:27;;;;;;;56.88;36.33;;;;;;;;;;6070503;23;20311;-76
2022/12/30 06:58:53;;;;;;;68.18;41.30;;;;;;;;;;6213880;23;20335;-76
2022/12/30 07:01:19;;;;;;;62.97;40.60;;;;;;;;;;6243304;23;20461;-76
2022/12/30 07:03:45;;;;;;;55.40;37.05;;;;;;;;;;6243364;23;20019;-76
2022/12/30 07:06:11;;;;;;;52.58;34.67;;;;;;;;;;6217987;23;20489;-76
2022/12/30 07:08:37;;;;;;;55.20;37.05;;;;;;;;;;6243410;23;20394;-75
2022/12/30 07:11:04;;;;;;;54.60;35.03;;;;;;;;;;6242468;23;20370;-75
2022/12/30 07:13:30;;;;;;;56.58;34.75;;;;;;;;;;6242739;23;20090;-76
2022/12/30 07:15:56;;;;;;;60.28;36.53;;;;;;;;;;6246511;22;20331;-76
2022/12/30 07:18:22;;;;;;;57.67;36.13;;;;;;;;;;6306448;22;20565;-75
2022/12/30 07:20:48;;;;;;;64.47;39.17;;;;;;;;;;6306069;22;20004;-76
2022/12/30 07:23:14;;;;;;;63.95;39.47;;;;;;;;;;6306368;22;20079;-76
2022/12/30 07:25:40;;;;;;;62.57;39.77;;;;;;;;;;6295509;22;20023;-72
2022/12/30 07:28:06;;;;;;;57.30;37.45;;;;;;;;;;6275720;22;20009;-74
2022/12/30 07:30:33;;;;;;;65.18;39.10;;;;;;;;;;6276246;22;20327;-73
2022/12/30 07:32:59;;;;;;;56.93;37.73;;;;;;;;;;6276340;22;20075;-73
2022/12/30 07:35:25;;;;;;;55.20;36.35;;;;;;;;;;6275888;22;20003;-72
2022/12/30 07:37:52;;;;;;;58.70;36.03;;;;;;;;;;6276074;22;20015;-72
2022/12/30 07:40:18;;;;;;;60.60;37.13;;;;;;;;;;6273936;22;20007;-71
2022/12/30 07:42:45;;;;;;;56.45;38.05;;;;;;;;;;6275709;22;20015;-73
2022/12/30 07:45:11;;;;;;;60.08;38.60;;;;;;;;;;6275549;22;20053;-72
2022/12/30 07:47:37;;;;;;;64.28;39.47;;;;;;;;;;6275753;22;20001;-72
2022/12/30 07:50:05;;;;;;;69.40;45.53;;;;;;;;;;6248534;22;20003;-69
2022/12/30 07:52:31;;;;;;;66.28;44.17;;;;;;;;;;6249277;22;20332;-71
2022/12/30 07:54:57;;;;;;;66.00;43.88;;;;;;;;;;6275680;22;20008;-70
2022/12/30 07:57:24;;;;;;;73.18;48.60;;;;;;;;;;6248430;22;20016;-69
2022/12/30 07:59:51;;;;;;;82.88;53.70;;;;;;;;;;6248615;22;20378;-70
2022/12/30 08:02:17;;;;;;;77.72;50.50;;;;;;;;;;6276278;22;20011;-72
2022/12/30 08:04:43;;;;;;;72.15;48.63;;;;;;;;;;6275906;22;20371;-67
2022/12/30 08:07:09;;;;;;;76.47;48.72;;;;;;;;;;6275881;22;20077;-69
2022/12/30 08:09:36;;;;;;;62.88;45.03;;;;;;;;;;6276232;22;20085;-71
2022/12/30 08:12:02;;;;;;;68.70;44.15;;;;;;;;;;6276699;22;20034;-71
2022/12/30 08:14:28;;;;;;;67.22;46.03;;;;;;;;;;6278140;22;20058;-69
2022/12/30 08:16:54;;;;;;;64.65;43.75;;;;;;;;;;6277647;22;20016;-68
2022/12/30 08:19:20;;;;;;;63.28;44.25;;;;;;;;;;6278071;22;20019;-70
2022/12/30 08:21:46;;;;;;;64.20;42.22;;;;;;;;;;6277540;22;20004;-68
2022/12/30 08:24:12;;;;;;;60.83;41.88;;;;;;;;;;6277641;22;19996;-68
2022/12/30 08:26:39;;;;;;;67.47;43.55;;;;;;;;;;6277627;22;20510;-68
2022/12/30 08:29:05;;;;;;;69.28;44.35;;;;;;;;;;6278288;22;20004;-69
2022/12/30 08:31:31;;;;;;;66.63;43.60;;;;;;;;;;6277743;22;20045;-70
2022/12/30 08:33:57;;;;;;;63.85;44.05;;;;;;;;;;6277724;22;20065;-67
2022/12/30 08:36:25;;;;;;;61.25;43.67;;;;;;;;;;6277479;22;20007;-69
2022/12/30 08:38:52;;;;;;;69.47;45.58;;;;;;;;;;6250729;22;20138;-69
2022/12/30 08:41:26;;;;;;;65.78;43.65;;;;;;;;;;6277838;22;19996;-69
2022/12/30 08:43:54;;;;;;;75.43;46.83;;;;;;;;;;6277249;22;20000;-72
2022/12/30 08:46:20;;;;;;;71.63;46.15;;;;;;;;;;6277361;22;20071;-73
2022/12/30 08:48:46;;;;;;;64.13;41.17;;;;;;;;;;6277818;22;20000;-73
2022/12/30 08:51:12;;;;;;;62.35;43.13;;;;;;;;;;6277396;22;20000;-70
2022/12/30 08:53:39;;;;;;;61.30;40.75;;;;;;;;;;6277666;22;20358;-70
2022/12/30 08:56:07;;;;;;;60.92;40.63;;;;;;;;;;6277594;22;20000;-72
2022/12/30 08:58:34;;;;;;;64.32;41.65;;;;;;;;;;6277786;22;20057;-70
2022/12/30 09:01:06;;;;;;;59.30;41.00;;;;;;;;;;6250561;22;20042;-69
2022/12/30 09:03:32;;;;;;;59.40;39.75;;;;;;;;;;6277402;22;20000;-73
2022/12/30 09:05:59;;;;;;;58.42;40.10;;;;;;;;;;6277513;22;20057;-73
2022/12/30 09:08:25;;;;;;;68.20;43.85;;;;;;;;;;6277444;22;20079;-70
2022/12/30 09:10:58;;;;;;;61.75;40.75;;;;;;;;;;6277726;22;20000;-72
2022/12/30 09:13:24;;;;;;;64.88;42.28;;;;;;;;;;6277177;22;20308;-71
2022/12/30 09:15:50;;;;;;;74.32;44.90;;;;;;;;;;6277362;22;20003;-70
2022/12/30 09:18:16;;;;;;;70.43;44.50;;;;;;;;;;6277554;22;20034;-68
2022/12/30 09:20:43;;;;;;;71.15;43.47;;;;;;;;;;6277494;22;20000;-70
2022/12/30 09:23:10;;;;;;;64.93;42.90;;;;;;;;;;6276940;22;20079;-72
2022/12/30 09:25:36;;;;;;;67.20;41.92;;;;;;;;;;6277262;22;20014;-68
2022/12/30 09:28:02;;;;;;;63.03;40.95;;;;;;;;;;6250344;22;20438;-68
2022/12/30 09:30:28;;;;;;;58.90;39.28;;;;;;;;;;6277180;22;19999;-68
2022/12/30 09:32:54;;;;;;;57.40;39.53;;;;;;;;;;6277474;22;19995;-71
2022/12/30 09:35:20;;;;;;;65.90;40.40;;;;;;;;;;6277518;22;20070;-67
2022/12/30 09:37:46;;;;;;;53.10;36.63;;;;;;;;;;6277154;22;20011;-68
2022/12/30 09:40:17;;;;;;;52.47;33.85;;;;;;;;;;6276969;22;20030;-67
2022/12/30 09:45:47;;;;;;;54.83;37.20;;;;;;;;;;6277253;22;20057;-69
2022/12/30 09:48:17;;;;;;;57.15;36.47;;;;;;;;;;6277136;22;19996;-68
2022/12/30 09:50:46;;;;;;;64.13;40.05;;;;;;;;;;6276853;22;20048;-70
2022/12/30 09:53:21;;;;;;;58.95;39.80;;;;;;;;;;6276817;22;20429;-68
2022/12/30 09:55:47;;;;;;;61.90;38.67;;;;;;;;;;6276887;22;20079;-67
2022/12/30 09:58:15;;;;;;;61.55;39.45;;;;;;;;;;6276965;22;20088;-68
2022/12/30 10:00:41;;;;;;;61.05;38.35;;;;;;;;;;6277023;22;20425;-66
2022/12/30 10:03:13;;;;;;;54.67;36.67;;;;;;;;;;6276997;22;20390;-67
2022/12/30 10:05:44;;;;;;;52.50;34.83;;;;;;;;;;6277001;22;19999;-71
2022/12/30 10:08:18;;;;;;;53.67;37.22;;;;;;;;;;6277056;22;20006;-67
2022/12/30 10:10:50;;;;;;;56.53;38.33;;;;;;;;;;6276886;22;20057;-66
2022/12/30 10:13:44;;;;;;;65.75;41.13;;;;;;;;;;6276914;22;20000;-71
2022/12/30 10:16:14;;;;;;;58.58;38.03;;;;;;;;;;6276950;22;20075;-68
2022/12/30 10:19:07;;;;;;;56.47;37.72;;;10.50;99.90;;;;;;6276910;22;20000;-66
2022/12/30 10:21:48;;;;;;;60.92;37.67;;;;;;;;;;6277286;22;20010;-70
2022/12/30 10:24:20;;;;;;;60.47;39.63;;;;;;;;;;6276951;22;20007;-67
2022/12/30 10:26:47;;;;;;;63.40;40.75;;;;;;;;;;6276592;22;20018;-76
2022/12/30 10:29:23;;;;;;;76.65;43.97;;;;;;;;;;6276837;22;20039;-76
2022/12/30 10:31:50;;;;;;;65.38;40.75;;;;;;;;;;6276098;22;20000;-76
2022/12/30 10:34:17;;;;;;;65.85;40.38;;;;;;;;;;6276587;22;20004;-75
2022/12/30 10:36:50;;;;;;;65.20;39.88;;;;;;;;;;6276722;22;20003;-76
2022/12/30 10:39:16;;;;;;;;;;;;;;;;;;6277411;22;20074;-76
2022/12/30 10:41:51;;;;;;;71.60;44.70;;;;;;;;;;6276801;22;19919;-75
2022/12/30 10:44:20;;;;;;;61.67;39.22;;;;;;;;;;6276770;22;20000;-76
2022/12/30 10:47:04;;;;;;;61.47;41.05;;;;;;;;;;6276573;22;20369;-76
2022/12/30 10:49:45;;;;;;;63.00;38.47;;;;;;;;;;6276572;22;20067;-76
2022/12/30 10:52:13;;;;;;;61.67;41.15;;;;;;;;;;6276136;22;20004;-75
2022/12/30 10:54:39;;;;;;;63.80;40.92;;;;;;;;;;6276470;22;20023;-75
2022/12/30 10:57:05;;;;;;;69.90;43.53;;;;;;;;;;6276575;22;20062;-75
2022/12/30 10:59:34;;;;;;;68.75;42.38;;;;;;;;;;6276784;22;19996;-75
2022/12/30 11:02:02;;;;;;;61.63;39.70;;;;;;;;;;6276787;22;20004;-75
2022/12/30 11:04:38;;;;;;;54.72;35.78;;;;;;;;;;6276465;22;19996;-76
2022/12/30 11:07:06;;;;;;;62.20;38.67;;;;;;;;;;6276218;22;20024;-75
2022/12/30 11:09:32;;;;;;;56.90;37.00;;;;;;;;;;6276348;22;20070;-68
2022/12/30 11:14:55;;;;;;;69.00;42.13;;;;;;;;;;6276326;22;20053;-68
2022/12/30 11:17:22;;;;;;;64.78;42.25;;;;;;;;;;6276753;22;20326;-68
2022/12/30 11:20:00;;;;;;;64.70;40.30;;;;;;;;;;6276284;22;20330;-66
2022/12/30 11:22:28;;;;;;;63.38;40.28;;;;;;;;;;6276433;22;20000;-68
2022/12/30 11:24:59;;;;;;;62.95;40.67;;;;;;;;;;6276423;22;20030;-72
2022/12/30 11:27:37;;;;;;;68.13;41.88;;;;;;;;;;6276229;22;20007;-68
2022/12/30 11:30:04;;;;;;;64.57;40.63;;;;;;;;;;6276285;22;20412;-69
2022/12/30 11:32:30;;;;;;;59.38;39.00;;;;;;;;;;6275904;22;20307;-68
2022/12/30 11:34:56;;;;;;;67.38;43.13;;;;;;;;;;6276240;22;19999;-73
2022/12/30 11:37:30;;;;;;;74.20;46.20;;;;;;;;;;6275892;22;20018;-73
2022/12/30 11:39:57;;;;;;;69.05;46.70;;;;;;;;;;6277005;22;20000;-75
2022/12/30 11:42:30;;;;;;;74.57;50.05;;;;;;;;;;6275572;22;20006;-71
2022/12/30 11:45:15;;;;;;;74.70;49.67;;;;;;;;;;6275910;22;20008;-68
2022/12/30 11:47:47;;;;;;;66.03;47.17;;;;;;;;;;6276174;22;20027;-73
2022/12/30 11:50:19;;;;;;;81.60;52.65;;;;;;;;;;6249006;22;20031;-68
2022/12/30 11:52:52;;;;;;;80.03;50.08;;;;;;;;;;6275937;22;20142;-67
2022/12/30 11:55:20;;;;;;;73.53;48.28;;;;;;;;;;6275984;22;20333;-69
2022/12/30 11:57:48;;;;;;;78.68;47.88;;;;;;;;;;6275439;22;20012;-70
2022/12/30 12:00:14;;;;;;;81.20;51.97;;;;;;;;;;6274596;22;20000;-69
2022/12/30 12:02:50;;;;;;;79.45;50.83;;;;;;;;;;6275829;22;20056;-69
2022/12/30 12:05:22;;;;;;;88.40;54.72;;;;;;;;;;6276004;22;20370;-72
2022/12/30 12:07:50;;;;;;;93.60;54.67;;;;;;;;;;6248748;22;20012;-73
2022/12/30 12:10:19;;;;;;;69.65;45.13;;;;;;;;;;6275344;22;20003;-73
2022/12/30 12:12:55;;;;;;;71.75;39.33;;;;;;;;;;6273731;22;20411;-70
2022/12/30 12:15:28;;;;;;;63.08;37.78;;;;;;;;;;6272727;22;20375;-68
2022/12/30 12:18:14;;;;;;;63.75;36.83;;;;;;;;;;6272569;22;20434;-69
2022/12/30 12:21:04;;;;;;;57.95;35.78;;;;;;;;;;6275597;22;20057;-70
2022/12/30 12:23:47;;;;;;;53.40;32.78;;;;;;;;;;6233559;22;20445;-72
2022/12/30 12:26:13;;;;;;;52.22;32.78;;;;;;;;;;6275462;22;20012;-67
2022/12/30 12:28:41;;;;;;;53.85;33.08;;;;;;;;;;6275721;22;19999;-72
2022/12/30 12:31:38;;;;;;;53.92;32.10;;;10.70;99.90;;;;;;6248400;22;20012;-71
2022/12/30 12:34:31;;;;;;;46.60;29.15;;;11.30;99.90;;;;;;6275044;22;20058;-69
2022/12/30 12:37:03;;;;;;;47.78;29.95;;;;;;;;;;6275099;22;20016;-70
2022/12/30 12:39:37;;;;;;;60.35;32.40;;;;;;;;;;6271419;22;19999;-68
2022/12/30 12:42:11;;;;;;;52.78;30.42;;;;;;;;;;6272336;22;20010;-69
2022/12/30 12:44:37;;;;;;;50.13;30.58;;;;;;;;;;6273553;22;20003;-68
2022/12/30 12:47:18;;;;;;;52.88;29.30;;;;;;;;;;6275359;22;20499;-69
2022/12/30 12:49:56;;;;;;;44.42;28.30;;;;;;;;;;6275470;22;20010;-71
2022/12/30 12:52:22;;;;;;;43.45;28.00;;;;;;;;;;6274479;22;20075;-74
2022/12/30 12:55:07;;;;;;;52.08;28.88;;;;;;;;;;6273609;22;20035;-74
2022/12/30 12:57:42;;;;;;;48.67;27.73;;;;;;;;;;6275140;22;20098;-76
2022/12/30 13:00:17;;;;;;;48.75;29.17;;;;;;;;;;6276059;22;20410;-76
2022/12/30 13:02:43;;;;;;;46.90;28.40;;;;;;;;;;6276169;22;20079;-75
2022/12/30 13:05:23;;;;;;;46.40;28.80;;;;;;;;;;6274991;22;20000;-72
2022/12/30 13:08:04;;;;;;;44.28;26.90;;;;;;;;;;6276240;22;20366;-76
2022/12/30 13:10:35;;;;;;;46.03;27.17;;;;;;;;;;6275895;22;20303;-72
2022/12/30 13:13:13;;;;;;;40.17;25.70;;;;;;;;;;6276576;22;20430;-76
2022/12/30 13:15:51;;;;;;;47.20;28.70;;;;;;;;;;6276409;22;20006;-75
2022/12/30 13:18:22;;;;;;;62.13;37.60;;;11.40;99.90;;;;;;6249269;22;20012;-75
2022/12/30 13:20:54;;;;;;;66.28;40.42;;;11.60;99.90;;;;;;6276183;22;20002;-74
2022/12/30 13:23:23;;;;;;;;;;;11.50;99.90;;;;;;6277376;22;20016;-75
2022/12/30 13:25:54;;;;;;;69.43;40.83;;;;;;;;;;6276207;22;19970;-75
2022/12/30 13:28:24;;;;;;;62.58;41.05;;;;;;;;;;6276564;22;20049;-74
2022/12/30 13:30:59;;;;;;;67.05;41.85;;;;;;;;;;6276320;22;20003;-74
2022/12/30 13:33:29;;;;;;;63.40;40.83;;;;;;;;;;6276651;22;20004;-73
2022/12/30 13:36:28;;;;;;;63.25;41.53;;;;;;;;;;6276133;22;20071;-74
2022/12/30 13:38:55;;;;;;;65.90;43.10;;;;;;;;;;6225011;22;20026;-74
2022/12/30 13:41:21;;;;;;;69.28;44.17;;;;;;;;;;6276596;22;20566;-75
2022/12/30 13:43:49;;;;;;;65.78;43.35;;;;;;;;;;6276181;22;20007;-75
2022/12/30 13:46:23;;;;;;;73.45;46.63;;;;;;;;;;6276034;22;20026;-75
2022/12/30 13:48:54;;;;;;;85.55;48.85;;;;;;;;;;6275272;22;20128;-76
2022/12/30 13:51:24;;;;;;;76.95;46.28;;;;;;;;;;6276110;22;20023;-75
2022/12/30 13:53:53;;;;;;;79.47;46.17;;;;;;;;;;6275292;22;20011;-71
2022/12/30 13:56:43;;;;;;;98.93;52.45;;;;;;;;;;6274385;22;20000;-74
2022/12/30 13:59:41;;;;;;;85.15;50.20;;;;;;;;;;6263038;22;20338;-75
2022/12/30 14:02:19;;;;;;;79.60;49.08;;;;;;;;;;6224685;22;20394;-73
2022/12/30 14:04:47;;;;;;;77.28;48.42;;;;;;;;;;6277049;22;20050;-75
2022/12/30 14:07:31;;;;;;;83.22;47.08;;;;;;;;;;6276920;22;20500;-75
2022/12/30 14:10:18;;;;;;;82.65;49.03;;;;;;;;;;6275692;22;20034;-74
2022/12/30 14:12:48;;;;;;;87.95;48.63;;;;;;;;;;6275519;22;19999;-76
2022/12/30 14:15:32;;;;;;;74.57;46.83;;;;;;;;;;6249881;22;20008;-68
2022/12/30 14:18:14;;;;;;;76.68;46.40;;;;;;;;;;6276921;22;20341;-68
2022/12/30 14:20:40;;;;;;;75.10;46.25;;;;;;;;;;6277194;22;20462;-67
2022/12/30 14:23:09;;;;;;;79.63;50.15;;;;;;;;;;6276453;22;20035;-68
2022/12/30 14:25:40;;;;;;;81.22;48.53;;;;;;;;;;6276285;22;20012;-68
2022/12/30 14:28:06;;;;;;;70.18;44.17;;;;;;;;;;6276893;22;20023;-69
2022/12/30 14:30:34;;;;;;;70.25;44.13;;;;;;;;;;6276889;22;20479;-68
2022/12/30 14:33:00;;;;;;;75.82;47.35;;;;;;;;;;6276963;22;19996;-67
2022/12/30 14:35:27;;;;;;;79.72;46.17;;;;;;;;;;6249589;22;20011;-69
2022/12/30 14:38:12;;;;;;;74.10;46.25;;;;;;;;;;6276600;22;20087;-68
2022/12/30 14:40:38;;;;;;;67.35;44.67;;;;;;;;;;6276754;22;20074;-71
2022/12/30 14:43:04;;;;;;;62.10;41.15;;;;;;;;;;6276326;22;20003;-69
2022/12/30 14:45:30;;;;;;;66.30;41.28;;;;;;;;;;6276761;22;20361;-68
2022/12/30 14:47:56;;;;;;;72.40;45.55;;;;;;;;;;6276684;22;20007;-69
2022/12/30 14:50:29;;;;;;;68.88;43.47;;;;;;;;;;6276780;22;20024;-69
2022/12/30 14:52:59;;;;;;;72.38;44.80;;;;;;;;;;6276554;22;20254;-68
2022/12/30 14:55:27;;;;;;;68.10;43.50;;;;;;;;;;6276757;22;19996;-69
2022/12/30 14:58:16;;;;;;;68.55;45.20;;;;;;;;;;6276746;22;20018;-68
2022/12/30 15:00:44;;;;;;;62.63;42.03;;;;;;;;;;6276849;22;20004;-68
2022/12/30 15:03:17;;;;;;;70.88;46.47;;;;;;;;;;6276328;22;20035;-68
2022/12/30 15:05:52;;;;;;;76.07;47.05;;;;;;;;;;6276498;22;20057;-68
2022/12/30 15:08:18;;;;;;;76.63;47.45;;;;;;;;;;6276682;22;20074;-71
2022/12/30 15:10:54;;;;;;;93.05;52.55;;;;;;;;;;6276698;22;20484;-69
2022/12/30 15:13:28;;;;;;;80.45;49.15;;;;;;;;;;6276527;22;20003;-68
2022/12/30 15:16:04;;;;;;;71.28;46.97;;;;;;;;;;6276495;22;20489;-68
2022/12/30 15:18:32;;;;;;;76.05;48.28;;;;;;;;;;6276227;22;20018;-76
2022/12/30 15:20:59;;;;;;;74.13;46.85;;;;;;;;;;6275929;22;20045;-76
2022/12/30 15:23:25;;;;;;;68.25;43.67;;;;;;;;;;6276250;22;20050;-76
2022/12/30 15:25:59;;;;;;;73.05;45.55;;;;;;;;;;6275834;22;20057;-74
2022/12/30 15:28:25;;;;;;;70.47;43.72;;;;;;;;;;6276011;22;20038;-76
2022/12/30 15:30:51;;;;;;;76.13;49.38;;;;;;;;;;6276280;22;20426;-76
2022/12/30 15:33:17;;;;;;;80.50;51.95;;;;;;;;;;6276240;22;20054;-75
2022/12/30 15:35:43;;;;;;;78.55;50.67;;;;;;;;;;6276357;22;20007;-76
2022/12/30 15:38:14;;;;;;;90.72;53.10;;;;;;;;;;6276389;22;20079;-76
2022/12/30 15:40:44;;;;;;;84.05;55.75;;;;;;;;;;6276179;22;20000;-76
2022/12/30 15:43:12;;;;;;;82.90;54.05;;;;;;;;;;6276170;22;20000;-75
2022/12/30 15:45:40;;;;;;;81.28;52.70;;;;;;;;;;6274751;22;20023;-77
2022/12/30 15:48:25;;;;;;;81.82;54.05;;;;;;;;;;6275887;22;20485;-74
2022/12/30 15:51:00;;;;;;;96.20;57.60;;;;;;;;;;6275845;22;20007;-75
2022/12/30 15:53:27;;;;;;;86.55;52.78;;;;;;;;;;6275884;22;19999;-77
2022/12/30 15:55:55;;;;;;;77.72;49.83;;;;;;;;;;6274129;22;20385;-76
2022/12/30 15:58:34;;;;;;;69.45;45.63;;;;;;;;;;6275916;22;20012;-70
2022/12/30 16:01:03;;;;;;;70.10;46.28;;;;;;;;;;6276272;22;19996;-76
2022/12/30 16:03:29;;;;;;;79.47;49.78;;;;;;;;;;6275566;22;20057;-75
2022/12/30 16:05:55;;;;;;;70.28;46.30;;;;;;;;;;6275948;22;20087;-76
2022/12/30 16:08:24;;;;;;;60.22;42.35;;;;;;;;;;6276272;22;20007;-76
2022/12/30 16:11:05;;;;;;;59.42;40.60;;;;;;;;;;6276138;22;20007;-75
2022/12/30 16:13:33;;;;;;;65.28;40.30;;;;;;;;;;6275807;22;20010;-76
2022/12/30 16:16:01;;;;;;;64.75;42.58;;;;;;;;;;6276066;22;20075;-76
2022/12/30 16:18:28;;;;;;;56.60;38.83;;;;;;;;;;6276087;22;20494;-74
2022/12/30 16:20:57;;;;;;;55.08;37.33;;;;;;;;;;6276311;22;20326;-75
2022/12/30 16:23:43;;;;;;;58.88;37.15;;;;;;;;;;6276253;22;20003;-74
2022/12/30 16:26:24;;;;;;;56.35;36.45;;;;;;;;;;6275815;22;20338;-76
2022/12/30 16:28:50;;;;;;;54.88;37.20;;;;;;;;;;6276101;22;19999;-76
2022/12/30 16:31:17;;;;;;;64.78;36.67;;;;;;;;;;6275810;22;20031;-76
2022/12/30 16:33:44;;;;;;;54.28;36.08;;;;;;;;;;6250800;22;20564;-73
2022/12/30 16:36:12;;;;;;;57.40;38.05;;;;;;;;;;6277789;22;20003;-75
2022/12/30 16:38:40;;;;;;;51.60;34.95;;;;;;;;;;6277500;22;20043;-76
2022/12/30 16:41:07;;;;;;;50.42;34.97;;;;;;;;;;6277967;22;20496;-76
2022/12/30 16:43:33;;;;;;;43.42;31.45;;;;;;;;;;6277736;22;20004;-76
2022/12/30 16:45:59;;;;;;;62.30;35.40;;;;;;;;;;6277232;22;20007;-75
2022/12/30 16:48:25;;;;;;;55.65;38.75;;;;;;;;;;6277771;22;20330;-75